DLH3LF LPMA-EDDF
Flight info
| Callsign | DLH3LF |
|---|---|
| Flight time | N/A |
| Altitude | 38000 |
| Route | DEGUN DCT RULET DCT GALPA DCT TOSDI DCT ZMR DCT NUBLO DCT RONSI DCT DELOG DCT PEXOD DCT DIDIG DCT TIRAV DCT ERJAZ DCT PIWIZ DCT TSU DCT OQQAL DCT RANUX/N0453F370 DCT VALEK DCT LIPNI UN858 LIMGO Z111 TUTOV/N0417F230 Z111 RAMOB IMCOM1A |
| Aircraft | A319/M-SDE3FGHIRWY/LB1 |
Departure
| Time | 2026-05-07 18:40 |
|---|---|
| Airport | Cristiano Ronaldo International Airport (LPMA) |
Arrival
| Time | N/A |
|---|---|
| Airport | Frankfurt Main Airport (EDDF) |
| Time | Latitude | Longitude | Altitude | Speed | Heading |
|---|---|---|---|---|---|
| 2026-05-07 17:50 | 32.69305 | -16.77724 | 169 ft | 0 kts | 138° |
| 2026-05-07 18:29 | 32.69308 | -16.77727 | 169 ft | 3 kts | 138° |
| 2026-05-07 18:29 | 32.69329 | -16.77749 | 169 ft | 4 kts | 138° |
| 2026-05-07 18:29 | 32.69344 | -16.77766 | 169 ft | 4 kts | 116° |
| 2026-05-07 18:29 | 32.69343 | -16.77790 | 169 ft | 3 kts | 46° |
| 2026-05-07 18:30 | 32.69331 | -16.77804 | 169 ft | 0 kts | 46° |
| 2026-05-07 18:32 | 32.69332 | -16.77804 | 169 ft | 1 kts | 46° |
| 2026-05-07 18:32 | 32.69342 | -16.77791 | 169 ft | 3 kts | 46° |
| 2026-05-07 18:33 | 32.69363 | -16.77765 | 169 ft | 5 kts | 46° |
| 2026-05-07 18:33 | 32.69393 | -16.77727 | 169 ft | 7 kts | 46° |
| 2026-05-07 18:33 | 32.69434 | -16.77678 | 169 ft | 9 kts | 46° |
| 2026-05-07 18:33 | 32.69482 | -16.77618 | 169 ft | 11 kts | 46° |
| 2026-05-07 18:34 | 32.69537 | -16.77550 | 169 ft | 12 kts | 46° |
| 2026-05-07 18:34 | 32.69600 | -16.77472 | 169 ft | 14 kts | 46° |
| 2026-05-07 18:34 | 32.69669 | -16.77387 | 169 ft | 15 kts | 46° |
| 2026-05-07 18:34 | 32.69739 | -16.77302 | 174 ft | 13 kts | 45° |
| 2026-05-07 18:35 | 32.69788 | -16.77242 | 180 ft | 8 kts | 46° |
| 2026-05-07 18:35 | 32.69799 | -16.77229 | 181 ft | 0 kts | 46° |
| 2026-05-07 18:37 | 32.69800 | -16.77227 | 181 ft | 1 kts | 46° |
| 2026-05-07 18:37 | 32.69810 | -16.77215 | 182 ft | 4 kts | 46° |
| 2026-05-07 18:38 | 32.69869 | -16.77180 | 193 ft | 17 kts | 3° |
| 2026-05-07 18:38 | 32.69996 | -16.77180 | 188 ft | 21 kts | 2° |
| 2026-05-07 18:38 | 32.70118 | -16.77060 | 193 ft | 26 kts | 45° |
| 2026-05-07 18:38 | 32.70262 | -16.76892 | 189 ft | 32 kts | 44° |
| 2026-05-07 18:39 | 32.70433 | -16.76694 | 193 ft | 38 kts | 44° |
| 2026-05-07 18:39 | 32.70599 | -16.76506 | 193 ft | 19 kts | 30° |
| 2026-05-07 18:39 | 32.70702 | -16.76433 | 191 ft | 11 kts | 104° |
| 2026-05-07 18:39 | 32.70647 | -16.76442 | 192 ft | 0 kts | 226° |
| 2026-05-07 18:40 | 32.70646 | -16.76443 | 193 ft | 1 kts | 226° |
| 2026-05-07 18:40 | 32.70551 | -16.76555 | 189 ft | 59 kts | 224° |
| 2026-05-07 18:40 | 32.70022 | -16.77171 | 240 ft | 145 kts | 224° |
| 2026-05-07 18:40 | 32.69285 | -16.78005 | 1059 ft | 151 kts | 217° |
| 2026-05-07 18:41 | 32.68293 | -16.78543 | 2037 ft | 170 kts | 199° |
| 2026-05-07 18:41 | 32.67007 | -16.78555 | 2607 ft | 200 kts | 175° |
| 2026-05-07 18:41 | 32.65568 | -16.78251 | 3228 ft | 227 kts | 168° |
| 2026-05-07 18:41 | 32.64165 | -16.77134 | 3833 ft | 264 kts | 129° |
| 2026-05-07 18:42 | 32.63509 | -16.75027 | 4735 ft | 282 kts | 95° |
| 2026-05-07 18:42 | 32.63559 | -16.72699 | 5848 ft | 288 kts | 82° |
| 2026-05-07 18:42 | 32.63850 | -16.70313 | 6954 ft | 294 kts | 79° |
| 2026-05-07 18:42 | 32.64166 | -16.67885 | 8035 ft | 301 kts | 80° |
| 2026-05-07 18:43 | 32.64423 | -16.65393 | 9118 ft | 307 kts | 82° |
| 2026-05-07 18:43 | 32.64603 | -16.62874 | 10141 ft | 314 kts | 84° |
| 2026-05-07 18:43 | 32.64750 | -16.60184 | 10678 ft | 338 kts | 82° |
| 2026-05-07 18:43 | 32.65181 | -16.57348 | 11107 ft | 360 kts | 72° |
| 2026-05-07 18:44 | 32.66086 | -16.54504 | 11634 ft | 374 kts | 59° |
| 2026-05-07 18:44 | 32.67446 | -16.51906 | 12421 ft | 377 kts | 48° |
| 2026-05-07 18:44 | 32.69226 | -16.49617 | 13299 ft | 377 kts | 38° |
| 2026-05-07 18:44 | 32.71141 | -16.47453 | 14146 ft | 382 kts | 38° |
| 2026-05-07 18:45 | 32.73082 | -16.45248 | 14916 ft | 388 kts | 38° |
| 2026-05-07 18:45 | 32.75044 | -16.43009 | 15685 ft | 393 kts | 38° |
| 2026-05-07 18:45 | 32.77007 | -16.40764 | 16444 ft | 398 kts | 37° |
| 2026-05-07 18:45 | 32.79017 | -16.38463 | 17204 ft | 403 kts | 37° |
| 2026-05-07 18:46 | 32.81051 | -16.36132 | 17961 ft | 408 kts | 37° |
| 2026-05-07 18:46 | 32.83108 | -16.33775 | 18657 ft | 413 kts | 37° |
| 2026-05-07 18:46 | 32.85174 | -16.31408 | 19333 ft | 417 kts | 37° |
| 2026-05-07 18:46 | 32.87276 | -16.28999 | 20023 ft | 421 kts | 37° |
| 2026-05-07 18:47 | 32.89369 | -16.26605 | 20688 ft | 424 kts | 37° |
| 2026-05-07 18:47 | 32.91511 | -16.24150 | 21333 ft | 428 kts | 37° |
| 2026-05-07 18:47 | 32.93670 | -16.21670 | 21970 ft | 432 kts | 37° |
| 2026-05-07 18:47 | 32.95842 | -16.19167 | 22594 ft | 436 kts | 37° |
| 2026-05-07 18:48 | 32.98032 | -16.16646 | 23206 ft | 439 kts | 37° |
| 2026-05-07 18:48 | 33.00218 | -16.14133 | 23739 ft | 443 kts | 37° |
| 2026-05-07 18:48 | 33.02448 | -16.11569 | 24210 ft | 447 kts | 37° |
| 2026-05-07 18:48 | 33.04700 | -16.08975 | 24677 ft | 451 kts | 38° |
| 2026-05-07 18:49 | 33.06968 | -16.06357 | 25130 ft | 455 kts | 38° |
| 2026-05-07 18:49 | 33.09256 | -16.03713 | 25578 ft | 459 kts | 38° |
| 2026-05-07 18:49 | 33.11533 | -16.01082 | 26010 ft | 463 kts | 38° |
| 2026-05-07 18:49 | 33.13860 | -15.98392 | 26443 ft | 467 kts | 38° |
| 2026-05-07 18:50 | 33.16207 | -15.95680 | 26871 ft | 471 kts | 38° |
| 2026-05-07 18:50 | 33.18574 | -15.92942 | 27290 ft | 475 kts | 39° |
| 2026-05-07 18:50 | 33.20955 | -15.90181 | 27686 ft | 479 kts | 39° |
| 2026-05-07 18:50 | 33.23356 | -15.87393 | 28090 ft | 483 kts | 39° |
| 2026-05-07 18:51 | 33.25777 | -15.84580 | 28479 ft | 487 kts | 39° |
| 2026-05-07 18:51 | 33.28186 | -15.81773 | 28845 ft | 490 kts | 39° |
| 2026-05-07 18:51 | 33.30648 | -15.78904 | 29215 ft | 494 kts | 39° |
| 2026-05-07 18:51 | 33.33121 | -15.76026 | 29570 ft | 498 kts | 39° |
| 2026-05-07 18:52 | 33.35584 | -15.73159 | 29915 ft | 501 kts | 40° |
| 2026-05-07 18:52 | 33.38096 | -15.70234 | 30272 ft | 503 kts | 40° |
| 2026-05-07 18:52 | 33.40610 | -15.67307 | 30676 ft | 504 kts | 40° |
| 2026-05-07 18:52 | 33.43272 | -15.64594 | 31050 ft | 500 kts | 32° |
| 2026-05-07 18:53 | 33.46045 | -15.62155 | 31427 ft | 501 kts | 32° |
| 2026-05-07 18:53 | 33.48862 | -15.59675 | 31815 ft | 502 kts | 32° |
| 2026-05-07 18:53 | 33.51684 | -15.57187 | 32206 ft | 504 kts | 32° |
| 2026-05-07 18:53 | 33.54517 | -15.54689 | 32600 ft | 505 kts | 32° |
| 2026-05-07 18:54 | 33.57356 | -15.52180 | 33000 ft | 506 kts | 32° |
| 2026-05-07 18:54 | 33.60188 | -15.49671 | 33408 ft | 507 kts | 32° |
| 2026-05-07 18:54 | 33.62999 | -15.47175 | 33813 ft | 508 kts | 32° |
| 2026-05-07 18:54 | 33.65844 | -15.44650 | 34190 ft | 509 kts | 32° |
| 2026-05-07 18:55 | 33.68692 | -15.42122 | 34565 ft | 509 kts | 32° |
| 2026-05-07 18:55 | 33.71552 | -15.39583 | 34944 ft | 509 kts | 33° |
| 2026-05-07 18:55 | 33.74399 | -15.37052 | 35310 ft | 510 kts | 33° |
| 2026-05-07 18:55 | 33.77213 | -15.34549 | 35654 ft | 510 kts | 33° |
| 2026-05-07 18:56 | 33.80069 | -15.32004 | 36001 ft | 510 kts | 33° |
| 2026-05-07 18:56 | 33.82930 | -15.29458 | 36347 ft | 511 kts | 33° |
| 2026-05-07 18:56 | 33.85791 | -15.26908 | 36690 ft | 511 kts | 33° |
| 2026-05-07 18:56 | 33.88614 | -15.24387 | 37023 ft | 511 kts | 33° |
| 2026-05-07 18:57 | 33.91482 | -15.21822 | 37346 ft | 511 kts | 33° |
| 2026-05-07 18:57 | 33.94336 | -15.19266 | 37665 ft | 512 kts | 33° |
| 2026-05-07 18:57 | 33.97203 | -15.16697 | 37926 ft | 513 kts | 33° |
| 2026-05-07 18:58 | 34.02905 | -15.11594 | 37977 ft | 513 kts | 33° |
| 2026-05-07 18:58 | 34.08637 | -15.06454 | 37976 ft | 513 kts | 33° |
| 2026-05-07 18:59 | 34.14341 | -15.01331 | 37974 ft | 513 kts | 33° |
| 2026-05-07 18:59 | 34.20081 | -14.96158 | 37975 ft | 514 kts | 34° |
| 2026-05-07 19:00 | 34.25691 | -14.90848 | 37977 ft | 517 kts | 41° |
| 2026-05-07 19:00 | 34.30787 | -14.84674 | 37976 ft | 517 kts | 41° |
| 2026-05-07 19:01 | 34.36083 | -14.78849 | 37976 ft | 517 kts | 39° |
| 2026-05-07 19:01 | 34.41468 | -14.73041 | 37983 ft | 517 kts | 40° |
| 2026-05-07 19:02 | 34.46750 | -14.67151 | 37980 ft | 518 kts | 41° |
| 2026-05-07 19:02 | 34.51965 | -14.61195 | 37990 ft | 518 kts | 41° |
| 2026-05-07 19:03 | 34.57221 | -14.55188 | 37990 ft | 518 kts | 41° |
| 2026-05-07 19:03 | 34.62497 | -14.49203 | 37995 ft | 518 kts | 41° |
| 2026-05-07 19:04 | 34.67756 | -14.43241 | 37990 ft | 519 kts | 41° |
| 2026-05-07 19:04 | 34.73003 | -14.37277 | 37994 ft | 519 kts | 41° |
| 2026-05-07 19:05 | 34.78275 | -14.31278 | 37998 ft | 518 kts | 42° |
| 2026-05-07 19:05 | 34.83531 | -14.25265 | 37988 ft | 518 kts | 42° |
| 2026-05-07 19:06 | 34.88752 | -14.19270 | 37985 ft | 518 kts | 42° |
| 2026-05-07 19:06 | 34.96628 | -14.10220 | 37987 ft | 518 kts | 42° |
| 2026-05-07 19:07 | 35.01842 | -14.04210 | 37985 ft | 518 kts | 42° |
| 2026-05-07 19:07 | 35.07069 | -13.98199 | 37991 ft | 518 kts | 42° |
| 2026-05-07 19:08 | 35.12325 | -13.92155 | 37988 ft | 518 kts | 43° |
| 2026-05-07 19:08 | 35.17527 | -13.86132 | 37986 ft | 518 kts | 43° |
| 2026-05-07 19:09 | 35.22754 | -13.80056 | 37986 ft | 518 kts | 43° |
| 2026-05-07 19:09 | 35.27990 | -13.73974 | 37986 ft | 518 kts | 43° |
| 2026-05-07 19:10 | 35.33189 | -13.67947 | 37989 ft | 518 kts | 43° |
| 2026-05-07 19:10 | 35.38430 | -13.61858 | 37989 ft | 518 kts | 43° |
| 2026-05-07 19:11 | 35.43613 | -13.55800 | 37993 ft | 518 kts | 44° |
| 2026-05-07 19:11 | 35.48828 | -13.49693 | 37992 ft | 518 kts | 44° |
| 2026-05-07 19:12 | 35.54051 | -13.43572 | 37988 ft | 518 kts | 44° |
| 2026-05-07 19:12 | 35.59239 | -13.37480 | 37988 ft | 518 kts | 44° |
| 2026-05-07 19:13 | 35.64460 | -13.31339 | 37983 ft | 518 kts | 44° |
| 2026-05-07 19:13 | 35.69638 | -13.25235 | 37987 ft | 519 kts | 44° |
| 2026-05-07 19:14 | 35.74847 | -13.19082 | 37986 ft | 519 kts | 44° |
| 2026-05-07 19:14 | 35.80064 | -13.12920 | 37988 ft | 519 kts | 44° |
| 2026-05-07 19:15 | 35.85249 | -13.06777 | 37981 ft | 519 kts | 44° |
| 2026-05-07 19:15 | 35.90467 | -13.00574 | 37980 ft | 519 kts | 44° |
| 2026-05-07 19:16 | 35.95641 | -12.94416 | 37979 ft | 520 kts | 45° |
| 2026-05-07 19:16 | 36.00859 | -12.88192 | 37980 ft | 520 kts | 44° |
| 2026-05-07 19:17 | 36.06042 | -12.82021 | 37980 ft | 520 kts | 45° |
| 2026-05-07 19:17 | 36.11247 | -12.75795 | 37981 ft | 520 kts | 45° |
| 2026-05-07 19:18 | 36.16412 | -12.69580 | 37976 ft | 520 kts | 45° |
| 2026-05-07 19:18 | 36.21627 | -12.63316 | 37982 ft | 520 kts | 45° |
| 2026-05-07 19:19 | 36.26788 | -12.57097 | 37974 ft | 520 kts | 45° |
| 2026-05-07 19:19 | 36.31967 | -12.50855 | 37977 ft | 520 kts | 45° |
| 2026-05-07 19:20 | 36.37172 | -12.44577 | 37970 ft | 520 kts | 45° |
| 2026-05-07 19:20 | 36.42336 | -12.38326 | 37975 ft | 520 kts | 45° |
| 2026-05-07 19:21 | 36.46645 | -12.33097 | 37970 ft | 520 kts | 45° |
| 2026-05-07 19:21 | 36.52681 | -12.25763 | 37972 ft | 520 kts | 46° |
| 2026-05-07 19:22 | 36.56981 | -12.20531 | 37970 ft | 520 kts | 46° |
| 2026-05-07 19:22 | 36.62157 | -12.14207 | 37977 ft | 520 kts | 46° |
| 2026-05-07 19:23 | 36.67288 | -12.07921 | 37967 ft | 520 kts | 46° |
| 2026-05-07 19:23 | 36.72463 | -12.01577 | 37970 ft | 520 kts | 46° |
| 2026-05-07 19:24 | 36.77592 | -11.95284 | 37975 ft | 520 kts | 46° |
| 2026-05-07 19:24 | 36.82755 | -11.88949 | 37970 ft | 520 kts | 46° |
| 2026-05-07 19:25 | 36.87879 | -11.82636 | 37973 ft | 520 kts | 46° |
| 2026-05-07 19:25 | 36.93031 | -11.76278 | 37974 ft | 520 kts | 46° |
| 2026-05-07 19:26 | 36.98140 | -11.69945 | 37964 ft | 520 kts | 46° |
| 2026-05-07 19:26 | 37.03294 | -11.63555 | 37962 ft | 520 kts | 46° |
| 2026-05-07 19:27 | 37.08403 | -11.57219 | 37962 ft | 520 kts | 46° |
| 2026-05-07 19:27 | 37.13536 | -11.50826 | 37965 ft | 519 kts | 46° |
| 2026-05-07 19:28 | 37.18660 | -11.44430 | 37970 ft | 519 kts | 46° |
| 2026-05-07 19:28 | 37.23748 | -11.38069 | 37969 ft | 519 kts | 47° |
| 2026-05-07 19:29 | 37.28859 | -11.31657 | 37967 ft | 519 kts | 47° |
| 2026-05-07 19:29 | 37.33946 | -11.25284 | 37974 ft | 519 kts | 46° |
| 2026-05-07 19:30 | 37.39065 | -11.18863 | 37970 ft | 519 kts | 47° |
| 2026-05-07 19:30 | 37.44167 | -11.12431 | 37968 ft | 518 kts | 47° |
| 2026-05-07 19:31 | 37.49216 | -11.06037 | 37969 ft | 518 kts | 47° |
| 2026-05-07 19:31 | 37.54316 | -10.99577 | 37966 ft | 518 kts | 47° |
| 2026-05-07 19:32 | 37.59388 | -10.93174 | 37968 ft | 518 kts | 46° |
| 2026-05-07 19:32 | 37.64486 | -10.86726 | 37965 ft | 518 kts | 47° |
| 2026-05-07 19:33 | 37.69522 | -10.80292 | 37963 ft | 517 kts | 47° |
| 2026-05-07 19:33 | 37.74587 | -10.73820 | 37965 ft | 517 kts | 47° |
| 2026-05-07 19:34 | 37.79611 | -10.67405 | 37958 ft | 517 kts | 47° |
| 2026-05-07 19:34 | 37.84685 | -10.60903 | 37956 ft | 517 kts | 47° |
| 2026-05-07 19:35 | 37.89695 | -10.54469 | 37959 ft | 517 kts | 47° |
| 2026-05-07 19:35 | 37.94748 | -10.47962 | 37961 ft | 517 kts | 47° |
| 2026-05-07 19:36 | 37.99799 | -10.41452 | 37965 ft | 517 kts | 46° |
| 2026-05-07 19:36 | 38.04816 | -10.34977 | 37967 ft | 517 kts | 46° |
| 2026-05-07 19:37 | 38.09836 | -10.28485 | 37971 ft | 517 kts | 46° |
| 2026-05-07 19:37 | 38.14868 | -10.21949 | 37966 ft | 516 kts | 46° |
| 2026-05-07 19:38 | 38.19893 | -10.15403 | 37962 ft | 516 kts | 46° |
| 2026-05-07 19:38 | 38.24884 | -10.08912 | 37960 ft | 516 kts | 46° |
| 2026-05-07 19:39 | 38.29916 | -10.02351 | 37959 ft | 516 kts | 46° |
| 2026-05-07 19:39 | 38.34921 | -9.95795 | 37961 ft | 516 kts | 46° |
| 2026-05-07 19:40 | 38.39895 | -9.89269 | 37966 ft | 516 kts | 46° |
| 2026-05-07 19:40 | 38.44915 | -9.82693 | 37968 ft | 517 kts | 46° |
| 2026-05-07 19:41 | 38.49924 | -9.76103 | 37965 ft | 517 kts | 46° |
| 2026-05-07 19:41 | 38.54892 | -9.69554 | 37962 ft | 516 kts | 46° |
| 2026-05-07 19:42 | 38.59890 | -9.62950 | 37956 ft | 516 kts | 46° |
| 2026-05-07 19:42 | 38.64852 | -9.56379 | 37953 ft | 516 kts | 46° |
| 2026-05-07 19:43 | 38.69855 | -9.49737 | 37959 ft | 516 kts | 46° |
| 2026-05-07 19:43 | 38.74809 | -9.43134 | 37959 ft | 516 kts | 46° |
| 2026-05-07 19:44 | 38.79791 | -9.36484 | 37952 ft | 516 kts | 46° |
| 2026-05-07 19:44 | 38.84747 | -9.29866 | 37959 ft | 516 kts | 46° |
| 2026-05-07 19:45 | 38.89725 | -9.23200 | 37954 ft | 516 kts | 46° |
| 2026-05-07 19:45 | 38.94669 | -9.16576 | 37956 ft | 516 kts | 46° |
| 2026-05-07 19:46 | 38.99646 | -9.09892 | 37950 ft | 516 kts | 46° |
| 2026-05-07 19:46 | 39.04568 | -9.03252 | 37952 ft | 515 kts | 46° |
| 2026-05-07 19:47 | 39.09524 | -8.96563 | 37951 ft | 515 kts | 46° |
| 2026-05-07 19:47 | 39.14446 | -8.89904 | 37952 ft | 515 kts | 46° |
| 2026-05-07 19:48 | 39.19385 | -8.83207 | 37946 ft | 515 kts | 46° |
| 2026-05-07 19:48 | 39.24318 | -8.76498 | 37950 ft | 515 kts | 46° |
| 2026-05-07 19:49 | 39.29215 | -8.69832 | 37951 ft | 515 kts | 46° |
| 2026-05-07 19:49 | 39.34140 | -8.63107 | 37947 ft | 515 kts | 46° |
| 2026-05-07 19:50 | 39.39064 | -8.56373 | 37944 ft | 515 kts | 45° |
| 2026-05-07 19:50 | 39.43957 | -8.49666 | 37939 ft | 515 kts | 45° |
| 2026-05-07 19:51 | 39.48876 | -8.42894 | 37939 ft | 515 kts | 45° |
| 2026-05-07 19:51 | 39.53759 | -8.36159 | 37941 ft | 515 kts | 45° |
| 2026-05-07 19:52 | 39.58678 | -8.29368 | 37935 ft | 515 kts | 45° |
| 2026-05-07 19:52 | 39.63557 | -8.22619 | 37932 ft | 515 kts | 45° |
| 2026-05-07 19:53 | 39.68470 | -8.15814 | 37937 ft | 515 kts | 45° |
| 2026-05-07 19:53 | 39.73353 | -8.09026 | 37930 ft | 515 kts | 45° |
| 2026-05-07 19:54 | 39.78225 | -8.02240 | 37928 ft | 515 kts | 45° |
| 2026-05-07 19:54 | 39.83121 | -7.95414 | 37932 ft | 515 kts | 45° |
| 2026-05-07 19:55 | 39.87985 | -7.88609 | 37928 ft | 515 kts | 45° |
| 2026-05-07 19:55 | 39.92880 | -7.81756 | 37924 ft | 515 kts | 45° |
| 2026-05-07 19:56 | 39.97744 | -7.74933 | 37923 ft | 515 kts | 45° |
| 2026-05-07 19:56 | 40.02623 | -7.68058 | 37923 ft | 515 kts | 45° |
| 2026-05-07 19:57 | 40.07460 | -7.61212 | 37923 ft | 515 kts | 45° |
| 2026-05-07 19:57 | 40.12317 | -7.54326 | 37920 ft | 515 kts | 44° |
| 2026-05-07 19:58 | 40.17146 | -7.47473 | 37920 ft | 514 kts | 44° |
| 2026-05-07 19:58 | 40.22000 | -7.40580 | 37917 ft | 514 kts | 44° |
| 2026-05-07 19:59 | 40.26849 | -7.33686 | 37915 ft | 514 kts | 44° |
| 2026-05-07 19:59 | 40.31657 | -7.26824 | 37917 ft | 513 kts | 44° |